sensor_id;sensor_type;location;lat;lon;timestamp;P1;durP1;ratioP1;P2;durP2;ratioP2
20859;SDS011;10590;48.154;11.514;2024-02-21T00:05:15;6.00;;;2.83;;
20859;SDS011;10590;48.154;11.514;2024-02-21T00:10:36;4.63;;;2.90;;
20859;SDS011;10590;48.154;11.514;2024-02-21T00:16:00;6.40;;;2.63;;
20859;SDS011;10590;48.154;11.514;2024-02-21T00:21:21;6.40;;;2.80;;
20859;SDS011;10590;48.154;11.514;2024-02-21T00:26:43;7.83;;;2.87;;
20859;SDS011;10590;48.154;11.514;2024-02-21T00:32:06;7.83;;;3.00;;
20859;SDS011;10590;48.154;11.514;2024-02-21T00:37:28;7.60;;;2.87;;
20859;SDS011;10590;48.154;11.514;2024-02-21T00:42:49;6.90;;;2.97;;
20859;SDS011;10590;48.154;11.514;2024-02-21T00:48:12;10.43;;;3.70;;
20859;SDS011;10590;48.154;11.514;2024-02-21T00:53:34;6.07;;;2.70;;
20859;SDS011;10590;48.154;11.514;2024-02-21T00:58:58;7.47;;;3.23;;
20859;SDS011;10590;48.154;11.514;2024-02-21T01:04:21;3.73;;;2.83;;
20859;SDS011;10590;48.154;11.514;2024-02-21T01:09:44;6.93;;;2.83;;
20859;SDS011;10590;48.154;11.514;2024-02-21T01:15:06;5.57;;;2.53;;
20859;SDS011;10590;48.154;11.514;2024-02-21T01:20:29;5.87;;;2.90;;
20859;SDS011;10590;48.154;11.514;2024-02-21T01:25:51;5.23;;;2.63;;
20859;SDS011;10590;48.154;11.514;2024-02-21T01:31:14;5.53;;;2.70;;
20859;SDS011;10590;48.154;11.514;2024-02-21T01:36:37;5.47;;;2.70;;
20859;SDS011;10590;48.154;11.514;2024-02-21T01:41:58;5.73;;;3.33;;
20859;SDS011;10590;48.154;11.514;2024-02-21T01:47:20;8.27;;;2.60;;
20859;SDS011;10590;48.154;11.514;2024-02-21T01:52:45;8.10;;;3.37;;
20859;SDS011;10590;48.154;11.514;2024-02-21T01:58:10;6.30;;;2.57;;
20859;SDS011;10590;48.154;11.514;2024-02-21T02:03:32;5.07;;;2.70;;
20859;SDS011;10590;48.154;11.514;2024-02-21T02:08:56;4.33;;;2.83;;
20859;SDS011;10590;48.154;11.514;2024-02-21T02:14:18;3.67;;;2.80;;
20859;SDS011;10590;48.154;11.514;2024-02-21T02:19:39;5.93;;;2.87;;
20859;SDS011;10590;48.154;11.514;2024-02-21T02:25:03;6.10;;;2.30;;
20859;SDS011;10590;48.154;11.514;2024-02-21T02:30:25;4.80;;;2.77;;
20859;SDS011;10590;48.154;11.514;2024-02-21T02:35:47;4.50;;;2.40;;
20859;SDS011;10590;48.154;11.514;2024-02-21T02:41:10;4.50;;;2.10;;
20859;SDS011;10590;48.154;11.514;2024-02-21T02:46:32;2.63;;;2.40;;
20859;SDS011;10590;48.154;11.514;2024-02-21T02:51:54;2.43;;;2.23;;
20859;SDS011;10590;48.154;11.514;2024-02-21T02:57:17;5.80;;;3.00;;
20859;SDS011;10590;48.154;11.514;2024-02-21T03:02:39;2.87;;;2.47;;
20859;SDS011;10590;48.154;11.514;2024-02-21T03:08:03;5.90;;;2.10;;
20859;SDS011;10590;48.154;11.514;2024-02-21T03:13:28;5.30;;;2.10;;
20859;SDS011;10590;48.154;11.514;2024-02-21T03:18:50;4.87;;;2.27;;
20859;SDS011;10590;48.154;11.514;2024-02-21T03:24:11;2.13;;;1.70;;
20859;SDS011;10590;48.154;11.514;2024-02-21T03:29:34;4.40;;;1.80;;
20859;SDS011;10590;48.154;11.514;2024-02-21T03:34:56;2.73;;;1.87;;
20859;SDS011;10590;48.154;11.514;2024-02-21T03:40:18;3.63;;;2.10;;
20859;SDS011;10590;48.154;11.514;2024-02-21T03:45:41;3.33;;;1.80;;
20859;SDS011;10590;48.154;11.514;2024-02-21T03:51:02;6.77;;;2.07;;
20859;SDS011;10590;48.154;11.514;2024-02-21T03:56:25;4.20;;;1.73;;
20859;SDS011;10590;48.154;11.514;2024-02-21T04:01:48;3.90;;;2.00;;
20859;SDS011;10590;48.154;11.514;2024-02-21T04:07:13;2.80;;;2.00;;
20859;SDS011;10590;48.154;11.514;2024-02-21T04:12:35;3.53;;;2.03;;
20859;SDS011;10590;48.154;11.514;2024-02-21T04:17:59;2.27;;;2.07;;
20859;SDS011;10590;48.154;11.514;2024-02-21T04:23:21;3.93;;;2.23;;
20859;SDS011;10590;48.154;11.514;2024-02-21T04:28:44;3.07;;;1.90;;
20859;SDS011;10590;48.154;11.514;2024-02-21T04:34:07;2.87;;;1.93;;
20859;SDS011;10590;48.154;11.514;2024-02-21T04:39:29;2.10;;;1.90;;
20859;SDS011;10590;48.154;11.514;2024-02-21T04:44:50;3.60;;;1.93;;
20859;SDS011;10590;48.154;11.514;2024-02-21T04:50:15;3.03;;;2.00;;
20859;SDS011;10590;48.154;11.514;2024-02-21T04:55:36;4.90;;;1.90;;
20859;SDS011;10590;48.154;11.514;2024-02-21T05:01:00;4.67;;;1.83;;
20859;SDS011;10590;48.154;11.514;2024-02-21T05:06:23;3.17;;;2.00;;
20859;SDS011;10590;48.154;11.514;2024-02-21T05:11:44;2.93;;;1.77;;
20859;SDS011;10590;48.154;11.514;2024-02-21T05:17:06;1.70;;;1.60;;
20859;SDS011;10590;48.154;11.514;2024-02-21T05:22:29;3.27;;;1.63;;
20859;SDS011;10590;48.154;11.514;2024-02-21T05:27:51;2.50;;;1.90;;
20859;SDS011;10590;48.154;11.514;2024-02-21T05:33:14;5.47;;;1.67;;
20859;SDS011;10590;48.154;11.514;2024-02-21T05:38:42;2.17;;;1.70;;
20859;SDS011;10590;48.154;11.514;2024-02-21T05:44:04;5.80;;;1.73;;
20859;SDS011;10590;48.154;11.514;2024-02-21T05:49:26;2.23;;;1.60;;
20859;SDS011;10590;48.154;11.514;2024-02-21T05:54:49;2.50;;;1.70;;
20859;SDS011;10590;48.154;11.514;2024-02-21T06:00:11;1.70;;;1.40;;
20859;SDS011;10590;48.154;11.514;2024-02-21T06:05:36;1.97;;;1.77;;
20859;SDS011;10590;48.154;11.514;2024-02-21T06:10:59;2.43;;;1.70;;
20859;SDS011;10590;48.154;11.514;2024-02-21T06:16:21;1.80;;;1.70;;
20859;SDS011;10590;48.154;11.514;2024-02-21T06:21:43;1.90;;;1.80;;
20859;SDS011;10590;48.154;11.514;2024-02-21T06:27:06;2.63;;;1.77;;
20859;SDS011;10590;48.154;11.514;2024-02-21T06:32:28;3.10;;;1.90;;
20859;SDS011;10590;48.154;11.514;2024-02-21T06:37:50;2.93;;;1.50;;
20859;SDS011;10590;48.154;11.514;2024-02-21T06:43:13;1.70;;;1.60;;
20859;SDS011;10590;48.154;11.514;2024-02-21T06:48:35;2.90;;;1.90;;
20859;SDS011;10590;48.154;11.514;2024-02-21T06:53:57;6.17;;;2.00;;
20859;SDS011;10590;48.154;11.514;2024-02-21T06:59:20;2.43;;;2.17;;
20859;SDS011;10590;48.154;11.514;2024-02-21T07:04:42;5.00;;;1.80;;
20859;SDS011;10590;48.154;11.514;2024-02-21T07:10:05;3.00;;;1.60;;
20859;SDS011;10590;48.154;11.514;2024-02-21T07:15:28;1.80;;;1.70;;
20859;SDS011;10590;48.154;11.514;2024-02-21T07:20:51;5.77;;;1.53;;
20859;SDS011;10590;48.154;11.514;2024-02-21T07:26:13;4.53;;;2.30;;
20859;SDS011;10590;48.154;11.514;2024-02-21T07:31:42;3.20;;;1.70;;
20859;SDS011;10590;48.154;11.514;2024-02-21T07:37:04;1.70;;;1.60;;
20859;SDS011;10590;48.154;11.514;2024-02-21T07:42:25;4.97;;;1.83;;
20859;SDS011;10590;48.154;11.514;2024-02-21T07:47:48;2.07;;;1.60;;
20859;SDS011;10590;48.154;11.514;2024-02-21T07:53:10;1.97;;;1.57;;
20859;SDS011;10590;48.154;11.514;2024-02-21T07:58:32;3.07;;;1.60;;
20859;SDS011;10590;48.154;11.514;2024-02-21T08:03:55;3.00;;;1.30;;
20859;SDS011;10590;48.154;11.514;2024-02-21T08:09:17;3.17;;;1.33;;
20859;SDS011;10590;48.154;11.514;2024-02-21T08:14:39;1.63;;;1.40;;
20859;SDS011;10590;48.154;11.514;2024-02-21T08:20:03;4.47;;;1.53;;
20859;SDS011;10590;48.154;11.514;2024-02-21T08:25:25;2.70;;;1.37;;
20859;SDS011;10590;48.154;11.514;2024-02-21T08:30:47;2.73;;;1.40;;
20859;SDS011;10590;48.154;11.514;2024-02-21T08:36:10;1.47;;;1.27;;
20859;SDS011;10590;48.154;11.514;2024-02-21T08:41:38;1.67;;;1.40;;
20859;SDS011;10590;48.154;11.514;2024-02-21T08:47:00;2.47;;;1.30;;
20859;SDS011;10590;48.154;11.514;2024-02-21T08:52:25;3.03;;;1.30;;
20859;SDS011;10590;48.154;11.514;2024-02-21T08:57:46;1.57;;;1.47;;
20859;SDS011;10590;48.154;11.514;2024-02-21T09:03:08;2.10;;;1.30;;
20859;SDS011;10590;48.154;11.514;2024-02-21T09:08:31;1.57;;;1.00;;
20859;SDS011;10590;48.154;11.514;2024-02-21T09:13:53;2.83;;;1.30;;
20859;SDS011;10590;48.154;11.514;2024-02-21T09:19:15;4.50;;;1.30;;
20859;SDS011;10590;48.154;11.514;2024-02-21T09:24:39;2.63;;;1.13;;
20859;SDS011;10590;48.154;11.514;2024-02-21T09:30:01;2.67;;;1.00;;
20859;SDS011;10590;48.154;11.514;2024-02-21T09:35:24;3.23;;;1.10;;
20859;SDS011;10590;48.154;11.514;2024-02-21T09:40:49;2.30;;;1.10;;
20859;SDS011;10590;48.154;11.514;2024-02-21T09:46:21;1.10;;;1.00;;
20859;SDS011;10590;48.154;11.514;2024-02-21T09:52:01;4.57;;;1.10;;
20859;SDS011;10590;48.154;11.514;2024-02-21T09:57:25;0.90;;;0.90;;
20859;SDS011;10590;48.154;11.514;2024-02-21T10:02:47;1.87;;;1.30;;
20859;SDS011;10590;48.154;11.514;2024-02-21T10:08:13;2.03;;;1.30;;
20859;SDS011;10590;48.154;11.514;2024-02-21T10:13:38;2.43;;;1.13;;
20859;SDS011;10590;48.154;11.514;2024-02-21T10:18:59;4.47;;;1.47;;
20859;SDS011;10590;48.154;11.514;2024-02-21T10:24:26;3.33;;;1.10;;
20859;SDS011;10590;48.154;11.514;2024-02-21T10:29:50;2.37;;;1.00;;
20859;SDS011;10590;48.154;11.514;2024-02-21T10:35:12;2.30;;;1.17;;
20859;SDS011;10590;48.154;11.514;2024-02-21T10:40:34;1.77;;;1.20;;
20859;SDS011;10590;48.154;11.514;2024-02-21T10:45:57;2.73;;;0.70;;
20859;SDS011;10590;48.154;11.514;2024-02-21T10:51:21;1.00;;;0.90;;
20859;SDS011;10590;48.154;11.514;2024-02-21T10:56:49;3.53;;;1.10;;
20859;SDS011;10590;48.154;11.514;2024-02-21T11:02:13;2.30;;;1.33;;
20859;SDS011;10590;48.154;11.514;2024-02-21T11:07:36;1.63;;;0.83;;
20859;SDS011;10590;48.154;11.514;2024-02-21T11:13:05;2.83;;;1.00;;
20859;SDS011;10590;48.154;11.514;2024-02-21T11:18:29;3.50;;;1.03;;
20859;SDS011;10590;48.154;11.514;2024-02-21T11:23:54;2.80;;;0.80;;
20859;SDS011;10590;48.154;11.514;2024-02-21T11:29:22;1.23;;;0.83;;
20859;SDS011;10590;48.154;11.514;2024-02-21T11:34:54;1.30;;;0.97;;
20859;SDS011;10590;48.154;11.514;2024-02-21T11:40:16;0.97;;;0.70;;
20859;SDS011;10590;48.154;11.514;2024-02-21T11:45:38;0.90;;;0.83;;
20859;SDS011;10590;48.154;11.514;2024-02-21T11:51:02;1.73;;;0.87;;
20859;SDS011;10590;48.154;11.514;2024-02-21T11:56:25;1.27;;;0.93;;
20859;SDS011;10590;48.154;11.514;2024-02-21T12:01:47;0.80;;;0.70;;
20859;SDS011;10590;48.154;11.514;2024-02-21T12:07:13;4.73;;;0.90;;
20859;SDS011;10590;48.154;11.514;2024-02-21T12:12:35;0.97;;;0.60;;
20859;SDS011;10590;48.154;11.514;2024-02-21T12:17:58;2.23;;;1.03;;
20859;SDS011;10590;48.154;11.514;2024-02-21T12:23:21;0.90;;;0.73;;
20859;SDS011;10590;48.154;11.514;2024-02-21T12:28:43;0.73;;;0.73;;
20859;SDS011;10590;48.154;11.514;2024-02-21T12:34:05;0.87;;;0.63;;
20859;SDS011;10590;48.154;11.514;2024-02-21T12:39:31;0.60;;;0.60;;
20859;SDS011;10590;48.154;11.514;2024-02-21T12:44:53;0.93;;;0.70;;
20859;SDS011;10590;48.154;11.514;2024-02-21T12:50:14;0.80;;;0.80;;
20859;SDS011;10590;48.154;11.514;2024-02-21T12:55:37;1.43;;;0.83;;
20859;SDS011;10590;48.154;11.514;2024-02-21T13:00:59;1.53;;;0.70;;
20859;SDS011;10590;48.154;11.514;2024-02-21T13:06:21;1.10;;;0.80;;
20859;SDS011;10590;48.154;11.514;2024-02-21T13:11:44;1.53;;;0.90;;
20859;SDS011;10590;48.154;11.514;2024-02-21T13:17:06;2.20;;;0.70;;
20859;SDS011;10590;48.154;11.514;2024-02-21T13:22:27;1.60;;;0.70;;
20859;SDS011;10590;48.154;11.514;2024-02-21T13:27:50;3.67;;;0.83;;
20859;SDS011;10590;48.154;11.514;2024-02-21T13:33:12;0.70;;;0.70;;
20859;SDS011;10590;48.154;11.514;2024-02-21T13:38:34;2.60;;;0.67;;
20859;SDS011;10590;48.154;11.514;2024-02-21T13:43:57;0.87;;;0.57;;
20859;SDS011;10590;48.154;11.514;2024-02-21T13:49:20;4.63;;;0.70;;
20859;SDS011;10590;48.154;11.514;2024-02-21T13:54:42;1.83;;;0.63;;
20859;SDS011;10590;48.154;11.514;2024-02-21T14:00:05;2.27;;;0.60;;
20859;SDS011;10590;48.154;11.514;2024-02-21T14:05:30;0.93;;;0.60;;
20859;SDS011;10590;48.154;11.514;2024-02-21T14:10:52;1.23;;;0.80;;
20859;SDS011;10590;48.154;11.514;2024-02-21T14:16:17;2.67;;;0.63;;
20859;SDS011;10590;48.154;11.514;2024-02-21T14:21:40;2.23;;;0.60;;
20859;SDS011;10590;48.154;11.514;2024-02-21T14:27:02;1.40;;;0.60;;
20859;SDS011;10590;48.154;11.514;2024-02-21T14:32:26;1.43;;;0.70;;
20859;SDS011;10590;48.154;11.514;2024-02-21T14:37:47;1.90;;;0.80;;
20859;SDS011;10590;48.154;11.514;2024-02-21T14:43:09;1.33;;;0.80;;
20859;SDS011;10590;48.154;11.514;2024-02-21T14:48:32;2.27;;;1.00;;
20859;SDS011;10590;48.154;11.514;2024-02-21T14:53:54;7.10;;;1.30;;
20859;SDS011;10590;48.154;11.514;2024-02-21T14:59:15;0.97;;;0.80;;
20859;SDS011;10590;48.154;11.514;2024-02-21T15:04:39;1.33;;;0.60;;
20859;SDS011;10590;48.154;11.514;2024-02-21T15:10:00;1.53;;;0.70;;
20859;SDS011;10590;48.154;11.514;2024-02-21T15:15:22;0.93;;;0.87;;
20859;SDS011;10590;48.154;11.514;2024-02-21T15:20:46;0.70;;;0.70;;
20859;SDS011;10590;48.154;11.514;2024-02-21T15:26:07;3.47;;;0.83;;
20859;SDS011;10590;48.154;11.514;2024-02-21T15:31:30;1.20;;;0.70;;
20859;SDS011;10590;48.154;11.514;2024-02-21T15:36:53;2.00;;;0.90;;
20859;SDS011;10590;48.154;11.514;2024-02-21T15:42:15;2.07;;;0.90;;
20859;SDS011;10590;48.154;11.514;2024-02-21T15:47:37;1.00;;;0.90;;
20859;SDS011;10590;48.154;11.514;2024-02-21T15:53:00;2.87;;;1.33;;
20859;SDS011;10590;48.154;11.514;2024-02-21T15:58:22;4.90;;;1.10;;
20859;SDS011;10590;48.154;11.514;2024-02-21T16:03:44;1.30;;;1.20;;
20859;SDS011;10590;48.154;11.514;2024-02-21T16:09:07;4.40;;;1.13;;
20859;SDS011;10590;48.154;11.514;2024-02-21T16:14:29;6.03;;;1.43;;
20859;SDS011;10590;48.154;11.514;2024-02-21T16:19:51;5.23;;;1.40;;
20859;SDS011;10590;48.154;11.514;2024-02-21T16:25:14;4.83;;;1.50;;
20859;SDS011;10590;48.154;11.514;2024-02-21T16:30:38;5.17;;;1.47;;
20859;SDS011;10590;48.154;11.514;2024-02-21T16:35:59;7.20;;;1.80;;
20859;SDS011;10590;48.154;11.514;2024-02-21T16:41:23;4.87;;;1.77;;
20859;SDS011;10590;48.154;11.514;2024-02-21T16:46:45;14.63;;;2.00;;
20859;SDS011;10590;48.154;11.514;2024-02-21T16:52:07;2.53;;;1.40;;
20859;SDS011;10590;48.154;11.514;2024-02-21T16:57:30;2.83;;;1.40;;
20859;SDS011;10590;48.154;11.514;2024-02-21T17:02:52;4.93;;;1.73;;
20859;SDS011;10590;48.154;11.514;2024-02-21T17:08:15;9.57;;;2.30;;
20859;SDS011;10590;48.154;11.514;2024-02-21T17:13:38;13.37;;;4.43;;
20859;SDS011;10590;48.154;11.514;2024-02-21T17:19:01;106.43;;;40.57;;
20859;SDS011;10590;48.154;11.514;2024-02-21T17:24:26;26.10;;;8.80;;
20859;SDS011;10590;48.154;11.514;2024-02-21T17:29:49;109.43;;;40.43;;
20859;SDS011;10590;48.154;11.514;2024-02-21T17:35:10;95.77;;;39.33;;
20859;SDS011;10590;48.154;11.514;2024-02-21T17:40:33;73.40;;;28.73;;
20859;SDS011;10590;48.154;11.514;2024-02-21T17:45:59;51.50;;;20.20;;
20859;SDS011;10590;48.154;11.514;2024-02-21T17:51:21;44.30;;;17.90;;
20859;SDS011;10590;48.154;11.514;2024-02-21T17:56:43;39.83;;;16.83;;
20859;SDS011;10590;48.154;11.514;2024-02-21T18:02:07;24.90;;;9.97;;
20859;SDS011;10590;48.154;11.514;2024-02-21T18:07:28;27.27;;;9.10;;
20859;SDS011;10590;48.154;11.514;2024-02-21T18:12:50;29.73;;;11.13;;
20859;SDS011;10590;48.154;11.514;2024-02-21T18:18:13;58.70;;;21.57;;
20859;SDS011;10590;48.154;11.514;2024-02-21T18:23:35;31.10;;;13.27;;
20859;SDS011;10590;48.154;11.514;2024-02-21T18:28:57;35.57;;;12.77;;
20859;SDS011;10590;48.154;11.514;2024-02-21T18:34:21;32.30;;;12.10;;
20859;SDS011;10590;48.154;11.514;2024-02-21T18:39:42;21.87;;;8.00;;
20859;SDS011;10590;48.154;11.514;2024-02-21T18:45:05;21.17;;;6.90;;
20859;SDS011;10590;48.154;11.514;2024-02-21T18:50:28;23.37;;;6.47;;
20859;SDS011;10590;48.154;11.514;2024-02-21T18:55:50;10.63;;;5.53;;
20859;SDS011;10590;48.154;11.514;2024-02-21T19:01:12;10.53;;;5.00;;
20859;SDS011;10590;48.154;11.514;2024-02-21T19:06:36;12.80;;;5.73;;
20859;SDS011;10590;48.154;11.514;2024-02-21T19:11:58;11.33;;;4.30;;
20859;SDS011;10590;48.154;11.514;2024-02-21T19:17:20;9.87;;;4.67;;
20859;SDS011;10590;48.154;11.514;2024-02-21T19:22:43;9.13;;;3.53;;
20859;SDS011;10590;48.154;11.514;2024-02-21T19:28:06;8.33;;;3.83;;
20859;SDS011;10590;48.154;11.514;2024-02-21T19:33:32;8.40;;;4.13;;
20859;SDS011;10590;48.154;11.514;2024-02-21T19:38:56;10.93;;;4.40;;
20859;SDS011;10590;48.154;11.514;2024-02-21T19:44:17;6.57;;;4.20;;
20859;SDS011;10590;48.154;11.514;2024-02-21T19:49:42;8.17;;;3.80;;
20859;SDS011;10590;48.154;11.514;2024-02-21T19:55:05;8.80;;;4.37;;
20859;SDS011;10590;48.154;11.514;2024-02-21T20:00:27;6.30;;;3.80;;
20859;SDS011;10590;48.154;11.514;2024-02-21T20:05:49;7.17;;;3.57;;
20859;SDS011;10590;48.154;11.514;2024-02-21T20:11:12;7.03;;;3.57;;
20859;SDS011;10590;48.154;11.514;2024-02-21T20:16:34;4.73;;;3.33;;
20859;SDS011;10590;48.154;11.514;2024-02-21T20:21:57;6.97;;;3.10;;
20859;SDS011;10590;48.154;11.514;2024-02-21T20:27:20;6.47;;;3.00;;
20859;SDS011;10590;48.154;11.514;2024-02-21T20:32:41;4.47;;;2.70;;
20859;SDS011;10590;48.154;11.514;2024-02-21T20:38:04;3.53;;;3.00;;
20859;SDS011;10590;48.154;11.514;2024-02-21T20:43:27;2.77;;;2.43;;
20859;SDS011;10590;48.154;11.514;2024-02-21T20:48:48;5.63;;;4.37;;
20859;SDS011;10590;48.154;11.514;2024-02-21T20:54:10;4.70;;;2.67;;
20859;SDS011;10590;48.154;11.514;2024-02-21T20:59:33;4.00;;;2.47;;
20859;SDS011;10590;48.154;11.514;2024-02-21T21:04:55;2.60;;;2.40;;
20859;SDS011;10590;48.154;11.514;2024-02-21T21:10:16;3.07;;;2.60;;
20859;SDS011;10590;48.154;11.514;2024-02-21T21:15:39;2.63;;;2.43;;
20859;SDS011;10590;48.154;11.514;2024-02-21T21:21:01;3.67;;;2.80;;
20859;SDS011;10590;48.154;11.514;2024-02-21T21:26:24;5.47;;;3.00;;
20859;SDS011;10590;48.154;11.514;2024-02-21T21:31:47;6.00;;;2.77;;
20859;SDS011;10590;48.154;11.514;2024-02-21T21:37:09;3.70;;;2.70;;
20859;SDS011;10590;48.154;11.514;2024-02-21T21:42:30;3.00;;;2.47;;
20859;SDS011;10590;48.154;11.514;2024-02-21T21:47:53;4.43;;;2.43;;
20859;SDS011;10590;48.154;11.514;2024-02-21T21:53:15;4.23;;;3.30;;
20859;SDS011;10590;48.154;11.514;2024-02-21T21:58:37;6.17;;;2.87;;
20859;SDS011;10590;48.154;11.514;2024-02-21T22:04:00;4.23;;;3.00;;
20859;SDS011;10590;48.154;11.514;2024-02-21T22:09:22;3.47;;;2.47;;
20859;SDS011;10590;48.154;11.514;2024-02-21T22:14:43;2.57;;;2.30;;
20859;SDS011;10590;48.154;11.514;2024-02-21T22:20:07;4.83;;;2.50;;
20859;SDS011;10590;48.154;11.514;2024-02-21T22:25:29;4.83;;;2.80;;
20859;SDS011;10590;48.154;11.514;2024-02-21T22:30:51;2.43;;;2.20;;
20859;SDS011;10590;48.154;11.514;2024-02-21T22:36:14;4.00;;;2.30;;
20859;SDS011;10590;48.154;11.514;2024-02-21T22:41:36;3.40;;;2.37;;
20859;SDS011;10590;48.154;11.514;2024-02-21T22:46:57;3.80;;;2.23;;
20859;SDS011;10590;48.154;11.514;2024-02-21T22:52:20;3.63;;;2.50;;
20859;SDS011;10590;48.154;11.514;2024-02-21T22:57:42;2.53;;;2.13;;
20859;SDS011;10590;48.154;11.514;2024-02-21T23:03:04;4.40;;;3.10;;
20859;SDS011;10590;48.154;11.514;2024-02-21T23:08:28;3.33;;;2.47;;
20859;SDS011;10590;48.154;11.514;2024-02-21T23:13:50;3.17;;;2.00;;
20859;SDS011;10590;48.154;11.514;2024-02-21T23:19:11;2.07;;;1.83;;
20859;SDS011;10590;48.154;11.514;2024-02-21T23:24:34;2.30;;;2.00;;
20859;SDS011;10590;48.154;11.514;2024-02-21T23:29:56;3.33;;;2.17;;
20859;SDS011;10590;48.154;11.514;2024-02-21T23:35:18;2.83;;;2.17;;
20859;SDS011;10590;48.154;11.514;2024-02-21T23:40:41;2.10;;;1.93;;
20859;SDS011;10590;48.154;11.514;2024-02-21T23:46:03;2.27;;;1.87;;
20859;SDS011;10590;48.154;11.514;2024-02-21T23:51:25;5.77;;;1.70;;
20859;SDS011;10590;48.154;11.514;2024-02-21T23:56:48;3.40;;;2.20;;
